Time;durP1;ratioP1;P1;durP2;ratioP2;P2;SDS_P1;SDS_P2;PMS_P1;PMS_P2;Temp;Humidity;BMP_temperature;BMP_pressure;BME280_temperature;BME280_humidity;BME280_pressure;Samples;Min_cycle;Max_cycle;Signal;HPM_P1;HPM_P2
2021/05/07 00:01:13;;;;;;;5.03;2.35;;;;;;;16.20;30.46;101292.47;5072483;28;20066;-79
2021/05/07 00:03:39;;;;;;;6.57;2.50;;;;;;;16.14;30.29;101289.13;5072436;28;20024;-79
2021/05/07 00:06:09;;;;;;;4.55;2.40;;;;;;;16.02;30.65;101291.81;5071700;28;20378;-79
2021/05/07 00:08:36;;;;;;;11.50;3.80;;;;;;;15.97;30.54;101290.06;5076579;28;20032;-79
2021/05/07 00:11:09;;;;;;;6.82;2.22;;;;;;;15.86;30.92;101288.84;5076479;28;20056;-79
2021/05/07 00:13:35;;;;;;;7.43;2.45;;;;;;;15.76;31.18;101294.75;5076493;28;20021;-79
2021/05/07 00:16:01;;;;;;;6.70;2.05;;;;;;;15.78;30.96;101297.97;5076437;28;20077;-78
2021/05/07 00:18:26;;;;;;;7.38;2.50;;;;;;;15.70;31.17;101290.56;5076246;28;20025;-79
2021/05/07 00:20:53;;;;;;;5.35;2.70;;;;;;;15.65;31.24;101296.31;5076243;28;20047;-79
2021/05/07 00:23:19;;;;;;;8.50;2.22;;;;;;;15.58;31.52;101291.28;5076170;28;20026;-79
2021/05/07 00:25:46;;;;;;;5.97;2.35;;;;;;;15.47;31.68;101293.59;5076209;28;20028;-78
2021/05/07 00:28:13;;;;;;;6.40;2.88;;;;;;;15.26;32.04;101296.31;5076083;28;20027;-80
2021/05/07 00:30:39;;;;;;;8.00;2.90;;;;;;;15.33;31.71;101301.28;5076197;28;20485;-79
2021/05/07 00:33:07;;;;;;;10.45;2.80;;;;;;;15.41;31.46;101297.66;5075877;28;20467;-79
2021/05/07 00:35:33;;;;;;;7.30;2.53;;;;;;;15.33;31.76;101303.22;5075985;28;20520;-79
2021/05/07 00:37:59;;;;;;;7.97;2.25;;;;;;;15.32;31.99;101296.91;5075799;28;20483;-79
2021/05/07 00:40:25;;;;;;;4.53;1.95;;;;;;;15.21;31.89;101296.50;5075656;28;20032;-78
2021/05/07 00:42:51;;;;;;;5.38;2.63;;;;;;;15.17;32.01;101308.47;5075908;28;20389;-78
2021/05/07 00:45:18;;;;;;;9.63;2.65;;;;;;;15.16;32.04;101310.44;5075758;28;20104;-79
2021/05/07 00:47:50;;;;;;;5.22;3.05;;;;;;;15.04;32.28;101304.81;5075758;28;20025;-78
2021/05/07 00:50:16;;;;;;;6.32;2.97;;;;;;;15.10;32.16;101317.25;5074431;28;20048;-79
2021/05/07 00:52:42;;;;;;;8.40;2.25;;;;;;;15.02;32.29;101309.03;5075666;28;20029;-78
2021/05/07 00:55:09;;;;;;;6.80;2.58;;;;;;;14.95;32.35;101313.09;5075591;28;20025;-79
2021/05/07 00:57:36;;;;;;;10.20;2.78;;;;;;;14.82;32.75;101318.81;5075615;28;20039;-79
2021/05/07 01:00:04;;;;;;;7.15;3.35;;;;;;;14.65;33.00;101333.38;5075385;28;20028;-79
2021/05/07 01:02:30;;;;;;;6.28;2.25;;;;;;;14.81;32.58;101330.94;5075411;28;20474;-78
2021/05/07 01:04:55;;;;;;;10.35;2.50;;;;;;;14.76;32.66;101317.38;5074131;28;20127;-79
2021/05/07 01:07:21;;;;;;;8.95;2.65;;;;;;;14.76;32.67;101320.91;5075486;28;20052;-79
2021/05/07 01:09:50;;;;;;;10.43;3.28;;;;;;;14.76;32.76;101325.63;5075351;28;20021;-79
2021/05/07 01:12:17;;;;;;;10.15;2.78;;;;;;;14.76;32.82;101329.19;5075289;28;20031;-78
2021/05/07 01:14:43;;;;;;;6.38;2.65;;;;;;;14.74;32.92;101330.66;5075252;28;20028;-79
2021/05/07 01:17:09;;;;;;;7.90;2.38;;;;;;;14.71;32.77;101324.63;5075046;28;20047;-79
2021/05/07 01:19:34;;;;;;;6.85;2.72;;;;;;;14.68;32.67;101330.81;5074213;28;20123;-78
2021/05/07 01:22:00;;;;;;;7.13;2.60;;;;;;;14.56;33.12;101333.41;5075144;28;20100;-79
2021/05/07 01:24:26;;;;;;;9.00;2.58;;;;;;;14.63;32.90;101330.16;5075125;28;20033;-78
2021/05/07 01:26:56;;;;;;;5.85;2.85;;;;;;;14.60;33.07;101328.88;5075157;28;20029;-79
2021/05/07 01:29:21;;;;;;;7.88;2.75;;;;;;;14.58;32.97;101328.38;5075110;28;20024;-79
2021/05/07 01:31:47;;;;;;;6.18;2.25;;;;;;;14.61;32.98;101335.19;5075014;28;20492;-78
2021/05/07 01:34:13;;;;;;;8.65;2.65;;;;;;;14.65;32.75;101333.38;5074962;28;20032;-78
2021/05/07 01:36:39;;;;;;;6.90;2.50;;;;;;;14.27;33.55;101328.53;5074755;28;20518;-79
2021/05/07 01:39:05;;;;;;;8.05;2.75;;;;;;;14.41;33.21;101329.19;5073278;28;20032;-79
2021/05/07 01:41:31;;;;;;;7.55;2.47;;;;;;;14.36;33.40;101329.34;5074937;28;20367;-78
2021/05/07 01:43:57;;;;;;;12.32;3.13;;;;;;;14.37;33.21;101332.91;5074803;28;20054;-78
2021/05/07 01:46:23;;;;;;;5.22;2.30;;;;;;;14.33;33.32;101337.44;5074643;28;20055;-79
2021/05/07 01:48:49;;;;;;;8.48;2.50;;;;;;;14.29;33.43;101331.78;5074708;28;20021;-78
2021/05/07 01:51:16;;;;;;;6.10;2.30;;;;;;;14.23;33.47;101330.31;5072564;28;20024;-78
2021/05/07 01:53:41;;;;;;;9.27;3.67;;;;;;;14.09;33.75;101327.72;5054484;28;20166;-79
2021/05/07 01:56:07;;;;;;;9.40;3.03;;;;;;;14.01;33.95;101325.78;5054555;28;20104;-79
2021/05/07 01:58:33;;;;;;;5.72;2.60;;;;;;;13.91;34.12;101328.03;5054348;28;20021;-79
2021/05/07 02:00:58;;;;;;;6.57;2.17;;;;;;;14.02;33.95;101326.59;5054370;28;20091;-79
2021/05/07 02:03:24;;;;;;;5.40;2.33;;;;;;;14.03;33.71;101322.69;5054167;28;20016;-78
2021/05/07 02:05:50;;;;;;;4.75;2.63;;;;;;;13.99;33.94;101321.75;5054356;28;20025;-79
2021/05/07 02:08:16;;;;;;;9.98;3.13;;;;;;;13.93;34.07;101332.06;5052993;28;20025;-79
2021/05/07 02:10:42;;;;;;;9.27;3.00;;;;;;;14.04;34.05;101327.06;5053646;28;20021;-79
2021/05/07 02:13:11;;;;;;;10.73;3.33;;;;;;;13.97;34.11;101344.03;5069611;28;20051;-79
2021/05/07 02:15:37;;;;;;;7.00;2.90;;;;;;;14.05;33.99;101337.72;5054138;28;20025;-78
2021/05/07 02:18:04;;;;;;;10.52;3.05;;;;;;;14.09;34.02;101335.16;5054015;28;20479;-79
2021/05/07 02:20:30;;;;;;;9.75;3.08;;;;;;;14.05;33.94;101337.72;5054083;28;20098;-78
2021/05/07 02:22:57;;;;;;;10.25;3.95;;;;;;;14.06;33.89;101339.38;5053945;28;20488;-79
2021/05/07 02:25:24;;;;;;;5.78;2.53;;;;;;;14.04;33.88;101329.81;5053989;28;20103;-79
2021/05/07 02:27:52;;;;;;;5.82;3.28;;;;;;;14.02;34.13;101337.56;5053898;28;20017;-78
2021/05/07 02:30:20;;;;;;;6.68;2.83;;;;;;;14.06;33.91;101339.38;5053635;28;20029;-78
2021/05/07 02:32:46;;;;;;;11.98;3.38;;;;;;;13.93;34.10;101339.50;5052595;28;20393;-78
2021/05/07 02:35:13;;;;;;;6.90;3.00;;;;;;;13.91;33.93;101342.59;5053797;28;20021;-78
2021/05/07 02:37:39;;;;;;;7.95;2.78;;;;;;;13.78;34.06;101344.31;5053456;28;20048;-78
2021/05/07 02:40:06;;;;;;;7.40;2.80;;;;;;;13.60;34.66;101339.91;5053596;28;20122;-78
2021/05/07 02:42:33;;;;;;;7.97;2.72;;;;;;;13.58;34.73;101342.16;5053612;28;20033;-78
2021/05/07 02:44:58;;;;;;;7.35;2.70;;;;;;;13.51;34.75;101342.63;5053588;28;20484;-78
2021/05/07 02:47:24;;;;;;;6.97;2.55;;;;;;;13.51;34.87;101339.88;5053563;28;20036;-78
2021/05/07 02:49:50;;;;;;;7.07;2.40;;;;;;;13.55;34.96;101334.56;5053476;28;20029;-78
2021/05/07 02:52:15;;;;;;;6.75;2.75;;;;;;;13.55;35.06;101340.06;5053522;28;20112;-78
2021/05/07 02:54:41;;;;;;;11.63;3.10;;;;;;;13.53;35.18;101347.81;5053437;28;20025;-78
2021/05/07 02:57:07;;;;;;;4.72;2.58;;;;;;;13.63;34.88;101342.03;5053298;28;20112;-78
2021/05/07 02:59:32;;;;;;;5.72;2.40;;;;;;;13.45;35.45;101351.31;5053223;28;20033;-79
2021/05/07 03:01:58;;;;;;;6.55;2.80;;;;;;;13.36;35.45;101348.53;5053207;28;20033;-78
2021/05/07 03:04:24;;;;;;;9.13;2.88;;;;;;;13.28;35.63;101349.31;5052544;28;20032;-78
2021/05/07 03:06:50;;;;;;;4.78;2.22;;;;;;;13.38;35.24;101345.50;5052332;28;20063;-78
2021/05/07 03:09:19;;;;;;;5.22;2.65;;;;;;;13.26;35.94;101355.13;5053063;28;20545;-78
2021/05/07 03:11:44;;;;;;;4.78;1.92;;;;;;;13.33;35.74;101355.47;5053088;28;20471;-78
2021/05/07 03:14:11;;;;;;;9.45;2.83;;;;;;;13.35;35.72;101351.59;5051614;28;20029;-79
2021/05/07 03:16:36;;;;;;;6.85;2.42;;;;;;;13.32;36.02;101351.13;5052998;28;20039;-78
2021/05/07 03:19:03;;;;;;;4.68;2.38;;;;;;;13.34;35.92;101356.28;5052956;28;20028;-78
2021/05/07 03:21:29;;;;;;;10.93;3.35;;;;;;;13.23;36.21;101360.44;5052927;28;20422;-78
2021/05/07 03:23:54;;;;;;;8.43;2.40;;;;;;;13.32;35.83;101359.34;5052879;28;20033;-78
2021/05/07 03:26:20;;;;;;;4.60;2.55;;;;;;;13.30;36.07;101363.56;5052860;28;20431;-78
2021/05/07 03:28:45;;;;;;;6.90;3.05;;;;;;;13.35;35.93;101362.59;5052772;28;20040;-78
2021/05/07 03:31:11;;;;;;;8.07;2.60;;;;;;;13.34;35.85;101359.03;5052801;28;20027;-78
2021/05/07 03:33:38;;;;;;;6.32;3.10;;;;;;;13.17;36.42;101356.19;5052707;28;20112;-78
2021/05/07 03:36:04;;;;;;;6.78;2.67;;;;;;;13.17;36.26;101367.16;5052692;28;20039;-78
2021/05/07 03:38:31;;;;;;;8.18;2.75;;;;;;;13.34;35.93;101367.28;5052297;28;20111;-78
2021/05/07 03:40:57;;;;;;;5.45;2.10;;;;;;;13.38;35.80;101365.53;5052064;28;20029;-78
2021/05/07 03:43:22;;;;;;;7.22;2.67;;;;;;;13.40;35.95;101366.00;5052562;28;20036;-79
2021/05/07 03:45:48;;;;;;;7.45;2.75;;;;;;;13.48;35.68;101364.44;5052651;28;20048;-78
2021/05/07 03:48:15;;;;;;;6.70;3.17;;;;;;;13.45;35.74;101374.13;5052482;28;20025;-78
2021/05/07 03:50:41;;;;;;;7.80;3.20;;;;;;;13.33;36.08;101371.16;5052538;28;20025;-78
2021/05/07 03:53:12;;;;;;;5.90;2.30;;;;;;;13.32;36.06;101383.25;5052504;28;20037;-78
2021/05/07 03:55:39;;;;;;;6.85;2.55;;;;;;;13.24;35.95;101376.59;5052492;28;20600;-78
2021/05/07 03:58:05;;;;;;;7.35;2.50;;;;;;;13.19;36.47;101382.19;5052384;28;20029;-78
2021/05/07 04:00:31;;;;;;;8.05;2.60;;;;;;;13.27;36.16;101378.69;5052340;28;20108;-78
2021/05/07 04:02:56;;;;;;;13.48;3.13;;;;;;;13.32;35.92;101384.06;5052445;28;20448;-78
2021/05/07 04:05:22;;;;;;;4.80;2.25;;;;;;;13.26;36.02;101390.81;5052412;28;20033;-78
2021/05/07 04:07:56;;;;;;;5.88;2.45;;;;;;;13.21;36.18;101390.94;5052413;28;20502;-78
2021/05/07 04:10:22;;;;;;;8.30;3.33;;;;;;;13.31;35.71;101387.13;5052386;28;20060;-78
2021/05/07 04:15:14;;;;;;;10.40;2.65;;;;;;;13.32;36.07;101380.50;5052357;28;20541;-78
2021/05/07 04:17:40;;;;;;;11.23;3.25;;;;;;;13.26;36.15;101381.75;5052259;28;20032;-79
2021/05/07 04:20:07;;;;;;;9.80;3.40;;;;;;;13.21;36.21;101385.44;5052151;28;20422;-78
2021/05/07 04:22:33;;;;;;;8.05;3.05;;;;;;;13.17;36.41;101391.84;5052193;28;20036;-78
2021/05/07 04:24:58;;;;;;;6.22;2.92;;;;;;;13.17;36.21;101389.94;5052203;28;20025;-78
2021/05/07 04:27:24;;;;;;;7.97;2.55;;;;;;;13.04;36.63;101391.63;5052224;28;20486;-80
2021/05/07 04:29:50;;;;;;;5.95;2.67;;;;;;;13.05;36.58;101401.47;5052114;28;20460;-78
2021/05/07 04:32:16;;;;;;;7.28;2.47;;;;;;;12.89;37.24;101397.50;5050891;28;20353;-80
2021/05/07 04:34:41;;;;;;;9.18;2.83;;;;;;;12.51;38.02;101402.53;5052070;28;20032;-78
2021/05/07 04:37:07;;;;;;;6.05;2.58;;;;;;;12.70;37.49;101397.69;5051899;28;20536;-78
2021/05/07 04:39:33;;;;;;;8.30;2.67;;;;;;;12.80;37.51;101404.03;5052023;28;20044;-78
2021/05/07 04:41:59;;;;;;;15.68;3.67;;;;;;;13.03;36.81;101400.16;5051960;28;20025;-78
2021/05/07 04:44:25;;;;;;;6.00;2.78;;;;;;;13.09;36.53;101406.34;5052060;28;20104;-78
2021/05/07 04:46:50;;;;;;;15.45;6.57;;;;;;;13.14;36.67;101400.69;5052067;28;20040;-77
2021/05/07 04:49:16;;;;;;;11.85;2.90;;;;;;;13.17;36.58;101406.38;5050742;28;20108;-77
2021/05/07 04:51:41;;;;;;;7.35;2.60;;;;;;;13.17;36.70;101408.31;5051848;28;20056;-78
2021/05/07 04:54:08;;;;;;;9.23;4.13;;;;;;;13.19;36.62;101406.88;5055575;28;20025;-78
2021/05/07 04:56:33;;;;;;;11.07;3.42;;;;;;;13.20;36.46;101414.00;5055651;28;20479;-78
2021/05/07 04:58:58;;;;;;;10.85;3.78;;;;;;;13.21;36.44;101409.31;5055539;28;20028;-77
2021/05/07 05:01:24;;;;;;;8.43;2.72;;;;;;;13.27;36.47;101411.63;5055590;28;20052;-78
2021/05/07 05:03:50;;;;;;;15.50;5.20;;;;;;;13.27;36.32;101421.81;5055570;28;20021;-78
2021/05/07 05:06:16;;;;;;;14.70;3.72;;;;;;;13.29;36.42;101420.34;5055435;28;20525;-78
2021/05/07 05:08:42;;;;;;;10.13;3.97;;;;;;;13.32;36.44;101413.44;5055451;28;20096;-77
2021/05/07 05:11:07;;;;;;;11.45;3.22;;;;;;;13.37;36.11;101421.53;5055420;28;20025;-78
2021/05/07 05:13:33;;;;;;;12.13;3.20;;;;;;;13.38;36.33;101431.41;5054538;28;20033;-78
2021/05/07 05:15:59;;;;;;;10.27;4.07;;;;;;;13.36;36.31;101430.88;5054386;28;20471;-77
2021/05/07 05:18:31;;;;;;;6.22;3.53;;;;;;;13.51;36.11;101426.91;5055282;28;20039;-77
2021/05/07 05:21:04;;;;;;;10.00;2.88;;;;;;;13.31;36.52;101431.84;5055291;28;20498;-77
2021/05/07 05:23:30;;;;;;;15.60;5.13;;;;;;;13.40;36.44;101433.81;5053976;28;20035;-77
2021/05/07 05:25:57;;;;;;;9.07;3.10;;;;;;;13.59;36.27;101432.44;5055183;28;20029;-78
2021/05/07 05:28:23;;;;;;;7.93;2.53;;;;;;;13.53;36.52;101427.44;5055107;28;20021;-78
2021/05/07 05:30:49;;;;;;;6.35;2.63;;;;;;;13.87;35.76;101435.81;5054994;28;20052;-77
2021/05/07 05:33:15;;;;;;;7.95;3.20;;;;;;;13.80;36.15;101431.91;5055074;28;20083;-77
2021/05/07 05:35:41;;;;;;;15.15;4.03;;;;;;;13.70;36.42;101434.94;5054888;28;20025;-78
2021/05/07 05:38:06;;;;;;;12.88;3.08;;;;;;;13.84;36.29;101425.47;5054690;28;20041;-77
2021/05/07 05:40:32;;;;;;;7.22;2.60;;;;;;;13.74;36.58;101441.41;5054837;28;20033;-76
2021/05/07 05:42:58;;;;;;;11.02;3.63;;;;;;;14.06;36.07;101432.81;5054809;28;20044;-82
2021/05/07 05:45:25;;;;;;;9.68;2.72;;;;;;;14.32;35.69;101438.34;5054748;28;20047;-78
2021/05/07 05:48:09;;;;;;;18.83;3.05;;;;;;;14.19;36.12;101432.97;5054810;28;20021;-77
2021/05/07 05:50:35;;;;;;;12.73;3.75;;;;;;;13.94;36.69;101442.78;5064122;28;20024;-80
2021/05/07 05:53:01;;;;;;;9.30;3.05;;;;;;;14.36;35.62;101435.78;5075708;28;20029;-77
2021/05/07 05:55:27;;;;;;;11.75;3.88;;;;;;;14.36;35.81;101449.50;5073603;28;20109;-78
2021/05/07 05:57:52;;;;;;;7.32;3.22;;;;;;;14.32;35.93;101440.28;5073975;28;20463;-78
2021/05/07 06:00:20;;;;;;;11.27;3.83;;;;;;;14.51;35.57;101453.75;5073082;28;20028;-78
2021/05/07 06:02:45;;;;;;;6.25;2.38;;;;;;;14.57;35.56;101436.75;5073478;28;20019;-78
2021/05/07 06:05:12;;;;;;;13.63;3.20;;;;;;;14.65;35.42;101457.16;5072578;28;20025;-79
2021/05/07 06:07:38;;;;;;;8.27;2.78;;;;;;;14.59;35.62;101458.47;5072150;28;20062;-81
2021/05/07 06:10:06;;;;;;;8.00;3.08;;;;;;;14.53;35.82;101465.25;5073309;28;20046;-79
2021/05/07 06:12:32;;;;;;;8.23;2.80;;;;;;;14.56;35.82;101461.84;5073195;28;20023;-76
2021/05/07 06:14:58;;;;;;;9.50;2.67;;;;;;;14.51;35.90;101460.06;5070334;28;20092;-79
2021/05/07 06:17:24;;;;;;;7.88;2.63;;;;;;;14.92;35.29;101467.84;5073100;28;20142;-78
2021/05/07 06:19:50;;;;;;;13.45;3.55;;;;;;;14.83;35.54;101475.28;5072315;28;20024;-81
2021/05/07 06:22:15;;;;;;;10.90;3.55;;;;;;;14.92;35.33;101467.84;5070951;28;20025;-84
2021/05/07 06:24:41;;;;;;;8.40;2.38;;;;;;;15.06;35.29;101469.63;5072648;28;20029;-83
2021/05/07 06:27:06;;;;;;;8.23;3.40;;;;;;;15.11;35.20;101470.25;5070035;28;20399;-79
2021/05/07 06:29:32;;;;;;;8.43;2.88;;;;;;;15.21;35.23;101474.63;5072724;28;20131;-85
2021/05/07 06:31:57;;;;;;;29.08;8.57;;;;;;;15.16;35.52;101470.09;5072729;28;20024;-81
2021/05/07 06:34:23;;;;;;;12.30;3.72;;;;;;;15.39;35.06;101470.69;5071987;28;20032;-78
2021/05/07 06:36:49;;;;;;;13.45;3.13;;;;;;;15.57;34.81;101476.97;5071590;28;20555;-79
2021/05/07 06:39:15;;;;;;;10.73;2.92;;;;;;;15.62;34.83;101476.00;5072052;28;20111;-78
2021/05/07 06:41:40;;;;;;;8.63;2.53;;;;;;;15.60;34.88;101483.75;5072424;28;20096;-77
2021/05/07 06:44:07;;;;;;;7.55;2.45;;;;;;;15.60;35.22;101484.56;5073209;28;20029;-78
2021/05/07 06:46:32;;;;;;;15.60;5.05;;;;;;;15.86;34.86;101478.97;5073525;28;20106;-77
2021/05/07 06:48:58;;;;;;;10.00;2.67;;;;;;;16.00;34.90;101474.06;5073275;28;20487;-76
2021/05/07 06:51:24;;;;;;;7.40;2.30;;;;;;;15.62;35.81;101482.31;5073266;28;20020;-77
2021/05/07 06:53:49;;;;;;;14.90;4.40;;;;;;;15.74;35.43;101479.69;5073362;28;20414;-76
2021/05/07 06:56:20;;;;;;;11.65;3.38;;;;;;;15.90;35.22;101471.69;5073142;28;20032;-77
2021/05/07 06:58:45;;;;;;;11.50;3.42;;;;;;;16.05;35.19;101484.91;5071920;28;20490;-78
2021/05/07 07:01:11;;;;;;;12.27;4.18;;;;;;;16.21;35.06;101481.59;5071201;28;20056;-77
2021/05/07 07:03:37;;;;;;;12.82;3.90;;;;;;;16.32;34.82;101480.88;5072668;28;20024;-77
2021/05/07 07:06:03;;;;;;;19.65;6.38;;;;;;;16.33;35.13;101484.44;5072083;28;20020;-78
2021/05/07 07:08:28;;;;;;;13.75;3.70;;;;;;;16.40;35.14;101478.38;5072094;28;20020;-78
2021/05/07 07:10:54;;;;;;;25.40;5.75;;;;;;;16.61;35.10;101481.97;5071881;28;20024;-75
2021/05/07 07:13:20;;;;;;;15.30;3.95;;;;;;;16.85;34.75;101478.56;5071936;28;20031;-76
2021/05/07 07:15:45;;;;;;;16.77;3.60;;;;;;;16.97;34.52;101483.34;5071116;28;20017;-77
2021/05/07 07:18:11;;;;;;;21.52;4.78;;;;;;;17.18;34.12;101479.41;5071838;28;20094;-76
2021/05/07 07:20:37;;;;;;;19.73;5.65;;;;;;;17.09;34.72;101484.22;5071675;28;20035;-76
2021/05/07 07:23:03;;;;;;;9.52;3.03;;;;;;;17.44;34.14;101483.84;5071708;28;20029;-77
2021/05/07 07:25:30;;;;;;;10.30;2.55;;;;;;;17.38;34.44;101490.72;5071889;28;20463;-77
2021/05/07 07:27:55;;;;;;;11.93;2.85;;;;;;;17.62;33.96;101488.06;5071347;28;20066;-76
2021/05/07 07:30:21;;;;;;;16.38;3.50;;;;;;;17.79;33.59;101491.78;5072010;28;20036;-77
2021/05/07 07:32:46;;;;;;;17.90;3.88;;;;;;;17.73;33.57;101489.25;5073075;28;20036;-76
2021/05/07 07:35:13;;;;;;;9.98;3.17;;;;;;;18.15;32.83;101486.28;5072401;28;20037;-77
2021/05/07 07:37:38;;;;;;;16.38;3.47;;;;;;;18.42;32.25;101489.47;5065059;28;20052;-78
2021/05/07 07:40:06;;;;;;;12.05;3.80;;;;;;;18.59;32.25;101492.00;5056436;28;20051;-77
2021/05/07 07:42:31;;;;;;;18.33;4.80;;;;;;;18.81;31.95;101493.47;5056468;28;20798;-75
2021/05/07 07:44:57;;;;;;;18.63;3.88;;;;;;;18.85;32.14;101494.38;5054433;28;20031;-77
2021/05/07 07:47:22;;;;;;;23.92;6.72;;;;;;;18.81;32.12;101497.03;5067143;28;20032;-76
2021/05/07 07:49:48;;;;;;;16.48;3.13;;;;;;;19.15;31.49;101494.03;5071429;28;20032;-77
2021/05/07 07:52:15;;;;;;;10.43;3.13;;;;;;;19.19;31.46;101492.16;5071494;28;20037;-78
2021/05/07 07:54:40;;;;;;;14.63;3.70;;;;;;;19.44;31.05;101498.41;5071544;28;20031;-81
2021/05/07 07:57:06;;;;;;;16.98;3.25;;;;;;;19.22;31.50;101499.78;5071476;28;20041;-80
2021/05/07 07:59:33;;;;;;;11.85;3.05;;;;;;;19.27;31.37;101500.34;5071493;28;20131;-80
2021/05/07 08:02:00;;;;;;;22.77;7.53;;;;;;;19.46;30.77;101507.16;5071284;28;20364;-77
2021/05/07 08:04:25;;;;;;;21.58;4.07;;;;;;;19.54;30.38;101504.22;5071507;28;20044;-77
2021/05/07 08:06:51;;;;;;;11.15;4.15;;;;;;;19.79;30.14;101501.31;5071330;28;20087;-80
2021/05/07 08:09:17;;;;;;;10.38;3.65;;;;;;;19.92;30.07;101500.88;5071337;28;20383;-76
2021/05/07 08:11:42;;;;;;;14.15;3.47;;;;;;;20.09;29.62;101502.47;5071254;28;20040;-78
2021/05/07 08:14:08;;;;;;;35.85;7.50;;;;;;;20.29;29.03;101500.59;5071254;28;20056;-77
2021/05/07 08:16:33;;;;;;;6.65;2.50;;;;;;;20.32;28.88;101508.19;5071347;28;20052;-77
2021/05/07 08:18:59;;;;;;;9.93;3.25;;;;;;;20.70;28.36;101509.47;5071275;28;20024;-80
2021/05/07 08:21:25;;;;;;;15.40;3.55;;;;;;;20.12;28.90;101504.56;5070782;28;20021;-77
2021/05/07 08:23:51;;;;;;;12.75;3.30;;;;;;;20.08;29.33;101511.97;5069922;28;20028;-77
2021/05/07 08:26:17;;;;;;;8.40;2.72;;;;;;;20.23;29.02;101513.94;5071263;28;20036;-77
2021/05/07 08:28:43;;;;;;;9.52;1.52;;;;;;;20.11;28.33;101514.03;5074266;28;20032;-77
2021/05/07 08:31:09;;;;;;;8.60;1.83;;;;;;;20.35;27.86;101504.69;5074845;28;20112;-77
2021/05/07 08:33:34;;;;;;;6.15;1.80;;;;;;;20.56;27.05;101509.19;5075110;28;20119;-78
2021/05/07 08:36:00;;;;;;;5.47;1.95;;;;;;;20.17;26.99;101509.00;5075158;28;20056;-78
2021/05/07 08:38:26;;;;;;;6.20;2.17;;;;;;;20.51;26.01;101507.47;5073446;28;20057;-76
2021/05/07 08:40:51;;;;;;;9.15;2.15;;;;;;;20.44;25.62;101510.88;5074946;28;20027;-76
2021/05/07 08:43:17;;;;;;;5.78;1.60;;;;;;;20.68;25.29;101511.81;5074830;28;20035;-78
2021/05/07 08:45:42;;;;;;;5.97;1.70;;;;;;;20.49;25.22;101521.72;5072181;28;20029;-76
2021/05/07 08:48:11;;;;;;;10.82;2.15;;;;;;;20.45;24.62;101514.47;5071865;28;20116;-76
2021/05/07 08:50:36;;;;;;;5.32;1.92;;;;;;;20.63;24.44;101523.19;5073407;28;20021;-81
2021/05/07 08:53:03;;;;;;;5.95;1.80;;;;;;;20.82;24.25;101523.22;5074520;28;20495;-77
2021/05/07 08:55:28;;;;;;;5.85;1.85;;;;;;;21.05;24.16;101526.91;5071650;28;20024;-74
2021/05/07 08:57:54;;;;;;;10.88;3.30;;;;;;;21.04;24.40;101527.28;5073715;28;20029;-82
2021/05/07 09:00:20;;;;;;;9.18;2.25;;;;;;;21.16;24.30;101532.69;5073544;28;20085;-76
2021/05/07 09:02:46;;;;;;;19.77;3.63;;;;;;;21.23;24.17;101532.00;5073010;28;20024;-75
2021/05/07 09:05:12;;;;;;;9.25;1.45;;;;;;;21.01;24.19;101528.00;5074434;28;20031;-78
2021/05/07 09:07:39;;;;;;;4.53;1.33;;;;;;;21.18;23.88;101523.97;5074188;28;20024;-80
2021/05/07 09:10:06;;;;;;;12.18;2.88;;;;;;;21.43;24.01;101530.06;5073625;28;20055;-75
2021/05/07 09:12:38;;;;;;;4.90;1.58;;;;;;;21.18;23.85;101524.78;5067861;28;20500;-75
2021/05/07 09:15:07;;;;;;;7.97;2.00;;;;;;;21.57;23.59;101522.78;5069246;28;20120;-78
2021/05/07 09:17:36;;;;;;;10.57;2.20;;;;;;;21.40;22.90;101528.03;5065295;28;20493;-76
2021/05/07 09:20:12;;;;;;;11.50;2.45;;;;;;;21.42;23.43;101520.91;5070504;28;20029;-74
2021/05/07 09:22:39;;;;;;;8.43;2.17;;;;;;;21.63;23.74;101531.66;5072570;28;20028;-82
2021/05/07 09:25:14;;;;;;;7.93;1.83;;;;;;;21.75;23.70;101533.44;5073964;28;20025;-76
2021/05/07 09:27:40;;;;;;;2.78;1.15;;;;;;;22.14;22.96;101529.38;5071668;28;20577;-75
2021/05/07 09:30:29;;;;;;;3.78;1.10;;;;;;;21.96;22.49;101528.25;5073810;28;20107;-76
2021/05/07 09:32:55;;;;;;;3.95;1.30;;;;;;;21.96;22.09;101531.03;5054107;28;20068;-83
2021/05/07 09:35:25;;;;;;;7.15;1.77;;;;;;;22.13;21.88;101533.31;5053510;28;20029;-75
2021/05/07 09:38:03;;;;;;;9.52;1.95;;;;;;;22.08;22.18;101535.63;5053959;28;20481;-76
2021/05/07 09:40:29;;;;;;;5.13;1.88;;;;;;;22.26;22.45;101531.16;5053078;28;20037;-75
2021/05/07 09:43:04;;;;;;;7.45;2.15;;;;;;;22.02;22.76;101535.13;5054140;28;20433;-75
2021/05/07 09:45:30;;;;;;;9.30;1.52;;;;;;;22.45;22.41;101509.97;5054087;28;20017;-76
2021/05/07 09:47:55;;;;;;;7.95;2.38;;;;;;;22.52;22.50;101527.59;5054571;28;20379;-82
2021/05/07 09:50:40;;;;;;;15.88;3.13;;;;;;;22.44;22.49;101531.41;5054128;28;20071;-82
2021/05/07 09:53:20;;;;;;;8.32;1.63;;;;;;;22.59;23.21;101526.88;5054757;28;20025;-75
2021/05/07 09:55:53;;;;;;;7.30;1.98;;;;;;;22.55;22.62;101529.59;5054649;28;20029;-76
2021/05/07 09:58:19;;;;;;;9.77;1.88;;;;;;;22.69;22.30;101537.38;5054560;28;20055;-77
2021/05/07 10:00:45;;;;;;;17.52;3.53;;;;;;;22.55;22.05;101546.31;5068259;28;20029;-75
2021/05/07 10:03:11;;;;;;;4.97;1.30;;;;;;;22.76;21.81;101534.69;5073049;28;20020;-76
2021/05/07 10:05:37;;;;;;;6.60;2.15;;;;;;;22.57;22.49;101534.78;5073610;28;20124;-80
2021/05/07 10:08:03;;;;;;;4.53;1.52;;;;;;;22.52;22.22;101532.31;5073324;28;20020;-83
2021/05/07 10:10:31;;;;;;;3.30;1.65;;;;;;;22.42;21.81;101537.38;5073391;28;20025;-76
2021/05/07 10:13:00;;;;;;;3.00;1.55;;;;;;;22.51;22.36;101536.28;5073285;28;20360;-76
2021/05/07 10:15:35;;;;;;;5.90;2.25;;;;;;;22.85;22.28;101545.56;5073222;28;20498;-75
2021/05/07 10:18:02;;;;;;;8.02;1.75;;;;;;;22.99;21.88;101537.41;5072220;28;20095;-76
2021/05/07 10:20:33;;;;;;;8.85;1.58;;;;;;;23.55;21.62;101533.66;5073471;28;20033;-76
2021/05/07 10:23:00;;;;;;;7.72;2.20;;;;;;;23.59;21.65;101540.09;5073261;28;20051;-76
2021/05/07 10:25:27;;;;;;;5.25;1.67;;;;;;;23.98;21.63;101525.75;5073373;28;20020;-76
2021/05/07 10:27:55;;;;;;;7.13;2.17;;;;;;;23.59;21.90;101534.53;5073623;28;20032;-75
2021/05/07 10:30:27;;;;;;;3.75;1.25;;;;;;;23.29;21.50;101529.00;5073142;28;20487;-77
2021/05/07 10:33:01;;;;;;;5.82;1.60;;;;;;;23.64;21.83;101541.75;5072113;28;20066;-76
2021/05/07 10:35:38;;;;;;;4.32;1.50;;;;;;;23.70;21.09;101540.22;5073750;28;20448;-76
2021/05/07 10:38:12;;;;;;;7.07;2.10;;;;;;;23.73;20.80;101537.50;5073607;28;20074;-80
2021/05/07 10:40:38;;;;;;;8.25;1.50;;;;;;;23.85;21.05;101538.38;5073997;28;20047;-76
2021/05/07 10:43:04;;;;;;;72.55;8.32;;;;;;;23.75;21.24;101537.91;5073773;28;20583;-84
2021/05/07 10:45:48;;;;;;;3.70;1.50;;;;;;;23.62;21.73;101546.94;5073784;28;20115;-78
2021/05/07 10:48:20;;;;;;;13.68;4.47;;;;;;;23.92;21.72;101541.25;5073654;28;20031;-76
2021/05/07 10:50:48;;;;;;;14.07;6.35;;;;;;;23.89;22.45;101542.03;5073522;28;20497;-76
2021/05/07 10:53:46;;;;;;;27.75;11.50;;;;;;;23.74;22.10;101552.25;5073556;28;20024;-75
2021/05/07 10:56:21;;;;;;;12.65;6.43;;;;;;;23.36;22.69;101556.19;5050179;28;20040;-79
2021/05/07 10:58:49;;;;;;;7.95;3.63;;;;;;;23.47;22.37;101560.69;5073306;28;20034;-75
2021/05/07 11:01:25;;;;;;;32.85;12.13;;;;;;;23.48;22.32;101562.28;5071713;28;20043;-75
2021/05/07 11:04:02;;;;;;;15.00;6.28;;;;;;;23.11;22.26;101564.22;5073538;28;20039;-83
2021/05/07 11:06:30;;;;;;;7.40;2.03;;;;;;;23.31;22.27;101556.50;5072028;28;20024;-76
2021/05/07 11:08:55;;;;;;;8.48;1.92;;;;;;;23.35;22.01;101560.13;5073190;28;20024;-76
2021/05/07 11:11:21;;;;;;;9.73;2.60;;;;;;;23.20;22.19;101561.94;5073283;28;20032;-83
2021/05/07 11:13:46;;;;;;;10.68;3.58;;;;;;;23.67;21.75;101568.91;5073306;28;20126;-76
2021/05/07 11:16:12;;;;;;;10.65;2.92;;;;;;;23.97;21.69;101547.28;5073150;28;20025;-83
2021/05/07 11:18:44;;;;;;;7.07;2.55;;;;;;;24.00;22.43;101554.06;5073001;28;20059;-76
2021/05/07 11:21:12;;;;;;;10.27;4.18;;;;;;;23.80;22.45;101551.50;5073037;28;20020;-79
2021/05/07 11:23:37;;;;;;;13.18;2.63;;;;;;;23.63;22.58;101562.47;5073048;28;20028;-77